Time;durP1;ratioP1;P1;durP2;ratioP2;P2;SDS_P1;SDS_P2;PMS_P1;PMS_P2;Temp;Humidity;BMP_temperature;BMP_pressure;BME280_temperature;BME280_humidity;BME280_pressure;Samples;Min_cycle;Max_cycle;Signal;HPM_P1;HPM_P2
2023/08/11 00:02:05;;;;;;;7.07;4.00;;;;;;;17.13;68.31;100970.28;10149321;29;20040;-77
2023/08/11 00:07:08;;;;;;;6.95;4.10;;;;;;;17.02;68.56;100963.19;10157884;29;20044;-77
2023/08/11 00:12:11;;;;;;;6.05;4.00;;;;;;;16.97;69.13;100972.78;10148504;29;20048;-78
2023/08/11 00:17:15;;;;;;;7.85;4.53;;;;;;;16.85;69.41;100964.00;10162024;29;20151;-77
2023/08/11 00:22:18;;;;;;;9.20;4.70;;;;;;;16.85;69.83;100960.44;10155727;29;20055;-77
2023/08/11 00:27:21;;;;;;;7.53;4.72;;;;;;;16.83;69.78;100963.28;10157643;29;20048;-77
2023/08/11 00:32:26;;;;;;;8.85;4.65;;;;;;;16.85;70.13;100969.44;10160050;29;20484;-78
2023/08/11 00:37:29;;;;;;;11.60;5.10;;;;;;;16.83;69.90;100966.00;10162693;29;20144;-77
2023/08/11 00:42:31;;;;;;;6.22;4.82;;;;;;;16.71;70.22;100978.06;10157922;29;20048;-77
2023/08/11 00:47:36;;;;;;;5.10;4.15;;;;;;;16.66;70.33;100973.09;10164452;29;20431;-77
2023/08/11 00:52:40;;;;;;;12.75;5.05;;;;;;;16.61;70.47;100966.41;10158111;29;20042;-77
2023/08/11 00:57:43;;;;;;;6.43;4.93;;;;;;;16.55;71.08;100954.31;10167013;29;20054;-77
2023/08/11 01:02:47;;;;;;;10.23;4.93;;;;;;;16.55;71.39;100957.88;10160498;29;20104;-77
2023/08/11 01:08:04;;;;;;;10.15;5.63;;;;;;;16.46;71.71;100963.34;10153859;29;20055;-77
2023/08/11 01:13:12;;;;;;;9.95;4.88;;;;;;;16.42;71.61;100954.63;10152735;29;20769;-77
2023/08/11 01:18:20;;;;;;;5.82;4.47;;;;;;;16.35;71.73;100954.38;10149795;29;20147;-77
2023/08/11 01:23:25;;;;;;;6.97;4.72;;;;;;;16.31;71.96;100960.25;10145628;29;20426;-78
2023/08/11 01:28:28;;;;;;;7.97;4.45;;;;;;;16.27;72.07;100958.84;10160577;29;20509;-77
2023/08/11 01:33:31;;;;;;;8.35;4.90;;;;;;;16.24;72.51;100949.13;10162149;29;20051;-77
2023/08/11 01:38:35;;;;;;;6.07;5.22;;;;;;;16.17;72.59;100949.84;10164291;29;20068;-77
2023/08/11 01:43:40;;;;;;;8.88;4.97;;;;;;;16.13;72.39;100943.88;10158090;29;20044;-77
2023/08/11 01:48:44;;;;;;;7.68;4.57;;;;;;;16.10;72.80;100933.34;10154260;29;20111;-78
2023/08/11 01:53:48;;;;;;;7.10;5.38;;;;;;;16.01;72.81;100926.06;10159897;29;20151;-77
2023/08/11 01:58:51;;;;;;;8.98;5.55;;;;;;;15.94;73.41;100923.09;10164754;29;20415;-77
2023/08/11 02:03:54;;;;;;;11.80;4.97;;;;;;;15.92;73.75;100927.81;10158496;29;20123;-77
2023/08/11 02:09:00;;;;;;;6.75;4.70;;;;;;;15.93;73.80;100918.66;10159555;29;20048;-78
2023/08/11 02:14:03;;;;;;;8.38;5.07;;;;;;;15.93;73.54;100915.97;10159169;29;20039;-77
2023/08/11 02:19:06;;;;;;;8.68;4.80;;;;;;;15.89;73.47;100914.56;10159734;29;20054;-77
2023/08/11 02:24:10;;;;;;;6.57;4.60;;;;;;;15.85;73.68;100922.13;10158199;29;20041;-77
2023/08/11 02:29:13;;;;;;;7.95;5.25;;;;;;;15.80;73.78;100924.41;10158828;29;20116;-77
2023/08/11 02:34:16;;;;;;;10.02;4.60;;;;;;;15.73;73.99;100920.56;10157074;29;20143;-77
2023/08/11 02:39:20;;;;;;;11.93;5.75;;;;;;;15.70;74.42;100919.00;10152389;29;20056;-77
2023/08/11 02:44:23;;;;;;;9.57;4.72;;;;;;;15.68;74.27;100912.88;10153228;29;20045;-77
2023/08/11 02:49:28;;;;;;;10.70;4.85;;;;;;;15.66;73.87;100916.72;10162699;29;20048;-77
2023/08/11 02:54:32;;;;;;;6.55;4.75;;;;;;;15.60;74.04;100917.31;10162823;29;20045;-77
2023/08/11 02:59:35;;;;;;;9.30;4.80;;;;;;;15.54;74.50;100910.63;10159401;29;20179;-77
2023/08/11 03:04:39;;;;;;;10.57;5.30;;;;;;;15.44;74.67;100918.75;10161727;29;20135;-77
2023/08/11 03:09:43;;;;;;;12.55;5.03;;;;;;;15.41;74.89;100910.03;10169079;29;20166;-77
2023/08/11 03:14:46;;;;;;;11.05;5.70;;;;;;;15.36;75.10;100907.78;10167238;29;20918;-77
2023/08/11 03:19:50;;;;;;;10.38;5.65;;;;;;;15.32;75.43;100916.28;10167296;29;20074;-78
2023/08/11 03:24:57;;;;;;;11.38;5.50;;;;;;;15.25;76.07;100907.91;10167143;29;20048;-77
2023/08/11 03:30:00;;;;;;;9.35;5.10;;;;;;;15.28;75.67;100915.72;10165627;29;20051;-77
2023/08/11 03:35:04;;;;;;;12.13;5.53;;;;;;;15.21;75.67;100920.84;10162300;29;20060;-77
2023/08/11 03:40:12;;;;;;;7.13;5.63;;;;;;;15.11;75.84;100914.59;10160642;29;20048;-77
2023/08/11 03:45:20;;;;;;;10.52;6.15;;;;;;;14.96;76.05;100919.53;10162723;29;20120;-77
2023/08/11 03:50:24;;;;;;;11.75;6.97;;;;;;;14.89;75.88;100910.28;10169489;29;20481;-77
2023/08/11 03:55:28;;;;;;;11.25;7.03;;;;;;;14.93;76.25;100908.16;10154746;29;20126;-76
2023/08/11 04:00:31;;;;;;;8.50;6.40;;;;;;;14.90;76.35;100905.72;10165019;29;20056;-77
2023/08/11 04:05:47;;;;;;;12.02;6.53;;;;;;;14.87;76.33;100917.69;10165840;29;20060;-77
2023/08/11 04:10:52;;;;;;;8.57;6.47;;;;;;;14.87;76.20;100912.28;10171491;29;20052;-77
2023/08/11 04:15:54;;;;;;;11.40;7.15;;;;;;;14.86;75.98;100912.41;10162047;29;20381;-77
2023/08/11 04:20:57;;;;;;;16.30;7.10;;;;;;;14.78;76.38;100911.25;10160388;29;20155;-77
2023/08/11 04:26:04;;;;;;;9.38;6.95;;;;;;;14.76;76.38;100912.41;10163357;29;20044;-77
2023/08/11 04:31:09;;;;;;;12.48;6.43;;;;;;;14.87;76.05;100916.84;10165574;29;20068;-77
2023/08/11 04:36:13;;;;;;;9.45;6.53;;;;;;;14.89;75.97;100920.22;10161765;29;20037;-77
2023/08/11 04:41:19;;;;;;;11.45;8.18;;;;;;;14.94;75.69;100912.56;10167476;29;20063;-77
2023/08/11 04:46:21;;;;;;;10.95;7.88;;;;;;;14.97;75.53;100918.53;10167925;29;20048;-77
2023/08/11 04:51:25;;;;;;;13.68;8.30;;;;;;;14.97;75.51;100910.41;10159961;29;20091;-77
2023/08/11 04:56:29;;;;;;;14.32;7.93;;;;;;;15.04;75.74;100906.16;10163432;29;20491;-77
2023/08/11 05:01:32;;;;;;;15.63;7.53;;;;;;;15.04;75.79;100902.63;10162385;29;20063;-77
2023/08/11 05:06:36;;;;;;;11.10;7.05;;;;;;;15.05;75.63;100921.38;10162200;29;20037;-77
2023/08/11 05:11:40;;;;;;;11.07;7.65;;;;;;;15.15;75.56;100932.25;10156149;29;20040;-77
2023/08/11 05:16:43;;;;;;;10.38;7.22;;;;;;;15.33;74.84;100928.81;10156847;29;20060;-77
2023/08/11 05:21:45;;;;;;;15.80;7.57;;;;;;;15.35;74.89;100916.03;10168473;29;20496;-77
2023/08/11 05:26:50;;;;;;;10.70;6.70;;;;;;;15.44;74.79;100926.88;10157978;29;20123;-77
2023/08/11 05:31:53;;;;;;;9.77;7.18;;;;;;;15.61;74.44;100941.53;10160511;29;20044;-77
2023/08/11 05:36:55;;;;;;;6.78;4.53;;;;;;;15.75;73.75;100933.97;10160070;29;20575;-77
2023/08/11 05:42:00;;;;;;;9.35;5.78;;;;;;;15.91;73.05;100915.28;10160261;29;20055;-77
2023/08/11 05:47:04;;;;;;;10.57;5.78;;;;;;;16.14;72.97;100919.31;10161136;29;20079;-77
2023/08/11 05:52:07;;;;;;;9.82;4.90;;;;;;;16.25;72.40;100914.72;10164252;29;20092;-77
2023/08/11 05:57:12;;;;;;;5.80;4.55;;;;;;;16.43;71.86;100920.22;10163055;29;20038;-77
2023/08/11 06:02:14;;;;;;;8.45;4.72;;;;;;;16.52;71.40;100922.91;10160067;29;20071;-77
2023/08/11 06:07:18;;;;;;;9.63;5.05;;;;;;;16.74;71.36;100916.22;10160147;29;20134;-77
2023/08/11 06:12:22;;;;;;;11.65;5.63;;;;;;;16.94;70.89;100918.81;10162045;29;20056;-77
2023/08/11 06:17:25;;;;;;;9.05;5.45;;;;;;;17.08;69.74;100912.00;10162346;29;20040;-77
2023/08/11 06:22:28;;;;;;;14.10;6.15;;;;;;;17.15;69.11;100918.56;10161706;29;20063;-77
2023/08/11 06:27:32;;;;;;;10.13;5.63;;;;;;;17.29;67.64;100906.31;10155418;29;20050;-78
2023/08/11 06:32:35;;;;;;;10.75;4.63;;;;;;;17.55;68.06;100906.34;10158427;29;20044;-77
2023/08/11 06:37:38;;;;;;;11.18;4.68;;;;;;;17.82;67.66;100895.34;10159141;29;20044;-77
2023/08/11 06:42:42;;;;;;;10.95;4.93;;;;;;;17.99;66.21;100907.25;10163868;29;20048;-77
2023/08/11 06:47:48;;;;;;;8.25;4.35;;;;;;;18.09;65.41;100909.84;10157782;29;20127;-77
2023/08/11 06:52:51;;;;;;;8.48;4.25;;;;;;;18.29;65.06;100905.00;10159629;29;20056;-77
2023/08/11 06:57:56;;;;;;;9.77;4.03;;;;;;;18.50;64.83;100896.44;10166075;29;20032;-77
2023/08/11 07:02:59;;;;;;;12.10;3.60;;;;;;;18.68;64.61;100896.34;10170254;29;20064;-77
2023/08/11 07:08:02;;;;;;;7.43;2.97;;;;;;;19.05;63.91;100886.94;10160326;29;20527;-77
2023/08/11 07:13:06;;;;;;;6.35;3.22;;;;;;;19.32;62.40;100893.94;10162230;29;20524;-77
2023/08/11 07:18:09;;;;;;;5.38;2.63;;;;;;;19.57;62.36;100898.41;10160584;29;20043;-77
2023/08/11 07:23:12;;;;;;;5.65;2.45;;;;;;;19.62;60.94;100896.00;10160775;29;20073;-77
2023/08/11 07:28:16;;;;;;;3.08;2.45;;;;;;;20.03;60.41;100890.50;10161884;29;20496;-78
2023/08/11 07:33:19;;;;;;;6.72;2.50;;;;;;;20.37;58.92;100894.84;10167445;29;20055;-77
2023/08/11 07:38:22;;;;;;;3.15;2.30;;;;;;;20.79;57.95;100890.91;10158009;29;20556;-77
2023/08/11 07:43:26;;;;;;;4.95;2.38;;;;;;;20.87;58.06;100899.06;10166077;29;20123;-78
2023/08/11 07:48:29;;;;;;;7.35;2.80;;;;;;;21.12;57.29;100891.59;10160630;29;20040;-77
2023/08/11 07:53:32;;;;;;;5.32;2.72;;;;;;;21.29;55.92;100892.31;10166313;29;20425;-78
2023/08/11 07:58:37;;;;;;;2.45;1.80;;;;;;;21.54;55.49;100883.91;10170781;29;20638;-77
2023/08/11 08:03:40;;;;;;;2.70;2.00;;;;;;;21.96;54.90;100877.03;10173945;29;20470;-76
2023/08/11 08:08:43;;;;;;;1.70;1.60;;;;;;;22.42;53.65;100872.22;10176982;29;20035;-77
2023/08/11 08:13:48;;;;;;;6.45;2.45;;;;;;;22.71;52.58;100878.72;10179955;29;20747;-77
2023/08/11 08:18:51;;;;;;;6.55;1.98;;;;;;;22.88;52.01;100880.19;10176597;29;20036;-78
2023/08/11 08:23:53;;;;;;;3.50;1.85;;;;;;;23.28;50.78;100875.13;10177160;29;20040;-77
2023/08/11 08:28:58;;;;;;;9.80;2.70;;;;;;;23.64;49.54;100885.13;10179385;29;20047;-77
2023/08/11 08:34:01;;;;;;;3.35;2.40;;;;;;;23.85;49.17;100876.06;10169447;29;20048;-77
2023/08/11 08:39:04;;;;;;;4.82;2.13;;;;;;;23.74;48.89;100876.56;10169027;29;20055;-78
2023/08/11 08:44:13;;;;;;;3.72;2.30;;;;;;;23.97;48.70;100863.50;10169330;29;20040;-78
2023/08/11 08:49:24;;;;;;;5.00;2.00;;;;;;;24.16;48.40;100870.13;10170199;29;20041;-78
2023/08/11 08:54:28;;;;;;;4.32;2.20;;;;;;;24.34;47.54;100864.09;10171839;29;20120;-78
2023/08/11 08:59:33;;;;;;;2.70;1.92;;;;;;;24.73;45.81;100863.44;10168191;29;20050;-78
2023/08/11 09:04:36;;;;;;;2.80;1.90;;;;;;;25.01;46.21;100861.59;10164507;29;20423;-78
2023/08/11 09:09:39;;;;;;;2.28;2.00;;;;;;;25.67;45.34;100861.75;10162843;29;20040;-78
2023/08/11 09:14:44;;;;;;;9.52;3.08;;;;;;;25.52;45.36;100864.66;10163589;29;20302;-78
2023/08/11 09:19:50;;;;;;;4.10;2.10;;;;;;;25.73;44.53;100863.63;10177925;29;20063;-78
2023/08/11 09:24:55;;;;;;;4.40;1.98;;;;;;;25.76;43.30;100862.34;10168753;29;20067;-78
2023/08/11 09:29:59;;;;;;;2.42;1.65;;;;;;;25.90;44.07;100865.94;10166327;29;20054;-78
2023/08/11 09:35:07;;;;;;;5.05;2.28;;;;;;;25.84;41.74;100859.38;10173706;29;20085;-78
2023/08/11 09:40:11;;;;;;;5.40;2.63;;;;;;;25.43;41.65;100859.59;10166664;29;20416;-78
2023/08/11 09:45:16;;;;;;;4.50;2.35;;;;;;;25.47;42.43;100860.84;10168057;29;20042;-78
2023/08/11 09:50:19;;;;;;;4.63;2.63;;;;;;;25.70;40.79;100852.19;10165536;29;20108;-78
2023/08/11 09:55:23;;;;;;;3.42;1.95;;;;;;;25.94;41.73;100856.19;10163321;29;20044;-78
2023/08/11 10:00:28;;;;;;;2.63;2.20;;;;;;;26.76;40.39;100851.88;10163772;29;20079;-78
2023/08/11 10:05:34;;;;;;;3.13;2.08;;;;;;;26.74;40.08;100859.50;10164544;29;20485;-78
2023/08/11 10:10:39;;;;;;;3.72;2.30;;;;;;;25.99;39.98;100856.38;10163201;29;20052;-78
2023/08/11 10:15:44;;;;;;;3.60;2.42;;;;;;;26.32;39.52;100847.22;10159056;29;20051;-78
2023/08/11 10:20:50;;;;;;;3.95;2.65;;;;;;;26.82;39.35;100844.63;10153752;29;20572;-78
2023/08/11 10:25:53;;;;;;;3.22;2.08;;;;;;;27.29;38.00;100831.41;10164599;29;20424;-78
2023/08/11 10:30:58;;;;;;;7.20;2.53;;;;;;;26.84;38.00;100832.34;10162229;29;20108;-78
2023/08/11 10:36:02;;;;;;;5.45;2.75;;;;;;;27.41;37.23;100840.66;10168115;29;20052;-78
2023/08/11 10:41:06;;;;;;;2.42;1.90;;;;;;;27.75;36.80;100831.00;10165224;29;20047;-78
2023/08/11 10:46:23;;;;;;;3.90;2.50;;;;;;;27.50;37.13;100825.50;10175581;29;20047;-78
2023/08/11 10:51:28;;;;;;;3.30;2.20;;;;;;;27.93;36.31;100823.84;10164342;29;20469;-78
2023/08/11 10:56:33;;;;;;;3.65;2.22;;;;;;;27.37;37.03;100831.97;10166867;29;20047;-78
2023/08/11 11:01:39;;;;;;;3.72;2.38;;;;;;;28.45;36.04;100827.06;10167725;29;20100;-78
2023/08/11 11:06:45;;;;;;;3.38;2.25;;;;;;;28.16;36.24;100821.25;10168682;29;20140;-78
2023/08/11 11:11:50;;;;;;;3.20;1.90;;;;;;;28.19;35.53;100818.00;10174154;29;20048;-78
2023/08/11 11:16:58;;;;;;;4.20;1.95;;;;;;;28.77;35.20;100810.28;10166651;29;20504;-78
2023/08/11 11:22:02;;;;;;;5.32;1.90;;;;;;;28.56;35.42;100817.19;10168153;29;20080;-78
2023/08/11 11:27:05;;;;;;;3.00;1.70;;;;;;;27.94;35.98;100817.22;10176690;29;20072;-78
2023/08/11 11:32:09;;;;;;;5.28;2.22;;;;;;;29.24;35.35;100802.16;10170891;29;20075;-78
2023/08/11 11:37:13;;;;;;;2.03;1.60;;;;;;;28.99;35.55;100813.34;10174149;29;20048;-78
2023/08/11 11:42:16;;;;;;;5.70;2.10;;;;;;;29.48;35.41;100797.44;10176162;29;20040;-78
2023/08/11 11:47:20;;;;;;;2.28;1.83;;;;;;;29.72;34.17;100799.16;10169407;29;20048;-79
2023/08/11 11:52:24;;;;;;;2.45;2.00;;;;;;;29.06;34.34;100805.78;10171061;29;20649;-78
2023/08/11 11:57:27;;;;;;;1.80;1.65;;;;;;;29.74;33.87;100793.41;10170597;29;20044;-79
2023/08/11 12:02:32;;;;;;;2.38;1.55;;;;;;;30.57;32.83;100794.03;10177136;29;20059;-78
2023/08/11 12:07:37;;;;;;;2.03;1.80;;;;;;;30.26;32.87;100793.44;10178859;29;20115;-78
2023/08/11 12:12:40;;;;;;;3.05;1.80;;;;;;;31.11;32.18;100781.47;10203119;29;20104;-78
2023/08/11 12:17:48;;;;;;;4.63;2.13;;;;;;;30.65;32.27;100791.72;10198508;29;20040;-79
2023/08/11 12:22:51;;;;;;;4.65;1.80;;;;;;;30.22;33.67;100781.16;10185254;29;20113;-79
2023/08/11 12:27:54;;;;;;;3.35;2.10;;;;;;;30.02;34.41;100773.22;10187189;29;20048;-79
2023/08/11 12:32:59;;;;;;;4.97;1.92;;;;;;;29.78;34.28;100766.88;10184659;29;20051;-78
2023/08/11 12:38:02;;;;;;;3.13;1.85;;;;;;;30.72;32.67;100768.53;10175497;29;20040;-79
2023/08/11 12:43:04;;;;;;;6.20;2.28;;;;;;;30.58;32.59;100766.09;10176693;29;20422;-78
2023/08/11 12:48:09;;;;;;;2.72;2.50;;;;;;;31.64;32.07;100770.91;10179680;29;20099;-79
2023/08/11 12:53:12;;;;;;;2.75;2.17;;;;;;;31.58;32.24;100756.13;10184705;29;20107;-77
2023/08/11 12:58:15;;;;;;;5.53;2.15;;;;;;;31.62;32.52;100758.38;10181155;29;20046;-79
2023/08/11 13:03:19;;;;;;;5.88;1.92;;;;;;;32.03;31.29;100751.47;10168426;29;20044;-77
2023/08/11 13:08:22;;;;;;;5.03;2.17;;;;;;;32.00;31.83;100736.16;10158716;29;20049;-77
2023/08/11 13:13:25;;;;;;;2.33;1.63;;;;;;;31.76;32.46;100748.59;10167222;29;20491;-79
2023/08/11 13:18:30;;;;;;;2.15;1.95;;;;;;;31.50;32.58;100741.84;10177389;29;20130;-77
2023/08/11 13:23:33;;;;;;;6.10;1.98;;;;;;;32.00;31.95;100740.88;10170890;29;20051;-77
2023/08/11 13:28:36;;;;;;;4.82;2.10;;;;;;;31.00;33.43;100735.22;10171139;29;20108;-78
2023/08/11 13:33:40;;;;;;;2.35;1.70;;;;;;;30.68;34.02;100741.31;10179215;29;20048;-79
2023/08/11 13:38:43;;;;;;;3.30;1.60;;;;;;;31.53;33.32;100738.56;10172778;29;20036;-76
2023/08/11 13:43:46;;;;;;;2.50;2.30;;;;;;;31.05;32.67;100718.69;10170645;29;20130;-76
2023/08/11 13:48:50;;;;;;;4.78;1.90;;;;;;;31.95;32.66;100725.00;10168035;29;20123;-78
2023/08/11 13:53:53;;;;;;;2.13;1.92;;;;;;;31.12;32.98;100715.72;10167684;29;20055;-78
2023/08/11 13:58:56;;;;;;;3.15;2.22;;;;;;;32.30;32.28;100717.34;10164458;29;20426;-77
2023/08/11 14:04:00;;;;;;;1.77;1.65;;;;;;;31.83;32.91;100702.06;10156111;29;20071;-78
2023/08/11 14:09:05;;;;;;;3.25;1.60;;;;;;;31.04;32.91;100710.59;10170203;29;20484;-78
2023/08/11 14:14:08;;;;;;;3.17;2.08;;;;;;;31.01;33.71;100700.84;10171725;29;20453;-76
2023/08/11 14:19:12;;;;;;;3.03;1.95;;;;;;;31.23;33.80;100691.78;10169582;29;20518;-78
2023/08/11 14:24:15;;;;;;;2.03;1.92;;;;;;;31.15;33.49;100687.47;10157357;29;20048;-79
2023/08/11 14:29:18;;;;;;;2.95;1.85;;;;;;;31.54;33.36;100688.34;10160732;29;20052;-79
2023/08/11 14:34:23;;;;;;;1.98;1.77;;;;;;;32.17;32.69;100688.03;10165986;29;20049;-77
2023/08/11 14:39:25;;;;;;;3.28;2.08;;;;;;;31.02;33.37;100693.34;10171136;29;20058;-78
2023/08/11 14:44:28;;;;;;;3.17;1.77;;;;;;;32.11;32.77;100683.50;10161241;29;20048;-77
2023/08/11 14:49:33;;;;;;;4.10;2.10;;;;;;;31.98;32.76;100677.25;10165591;29;20048;-77
2023/08/11 14:54:36;;;;;;;3.83;2.35;;;;;;;31.92;33.07;100678.28;10161785;29;20048;-77
2023/08/11 14:59:38;;;;;;;6.32;2.22;;;;;;;31.85;33.13;100679.59;10171303;29;20065;-77
2023/08/11 15:04:43;;;;;;;3.28;2.13;;;;;;;31.34;34.10;100666.69;10172941;29;20052;-77
2023/08/11 15:09:46;;;;;;;5.22;1.95;;;;;;;31.39;34.00;100660.38;10180995;29;20051;-79
2023/08/11 15:14:49;;;;;;;3.25;2.20;;;;;;;32.47;32.51;100664.41;10174937;29;20108;-79
2023/08/11 15:19:53;;;;;;;3.35;2.38;;;;;;;31.78;33.52;100657.56;10173639;29;20104;-79
2023/08/11 15:25:00;;;;;;;3.78;2.30;;;;;;;31.71;33.86;100655.00;10177956;29;20044;-77
2023/08/11 15:30:04;;;;;;;2.90;1.98;;;;;;;32.19;33.00;100649.72;10177209;29;20500;-77
2023/08/11 15:35:09;;;;;;;4.85;2.20;;;;;;;31.81;33.94;100643.16;10176933;29;20111;-78
2023/08/11 15:40:12;;;;;;;6.65;2.30;;;;;;;32.39;32.88;100644.38;10178008;29;20063;-78
2023/08/11 15:45:15;;;;;;;7.07;2.38;;;;;;;32.33;33.15;100641.78;10179366;29;20488;-78
2023/08/11 15:50:19;;;;;;;2.22;1.90;;;;;;;32.12;33.00;100635.19;10182991;29;20115;-78
2023/08/11 15:55:22;;;;;;;2.20;1.98;;;;;;;31.82;33.77;100627.34;10181523;29;20140;-78
2023/08/11 16:00:38;;;;;;;6.72;2.10;;;;;;;31.74;34.11;100637.81;10171701;29;20052;-78
2023/08/11 16:05:44;;;;;;;2.80;2.38;;;;;;;31.12;34.01;100629.72;10186148;29;20056;-78
2023/08/11 16:10:47;;;;;;;3.47;2.15;;;;;;;30.47;35.17;100629.25;10177079;29;20127;-78
2023/08/11 16:15:50;;;;;;;4.38;2.30;;;;;;;29.68;36.18;100622.75;10175858;29;20381;-78
2023/08/11 16:20:55;;;;;;;3.40;2.08;;;;;;;29.53;37.13;100626.84;10179157;29;20036;-78
2023/08/11 16:25:57;;;;;;;3.80;2.10;;;;;;;29.71;36.96;100627.78;10182130;29;20047;-78
2023/08/11 16:31:00;;;;;;;6.05;2.33;;;;;;;30.14;36.80;100618.09;10179757;29;20039;-78
2023/08/11 16:36:05;;;;;;;4.32;2.25;;;;;;;30.25;36.48;100623.59;10182839;29;20377;-79
2023/08/11 16:41:08;;;;;;;5.72;1.90;;;;;;;29.62;37.38;100629.25;10179904;29;20040;-78
2023/08/11 16:46:11;;;;;;;4.18;2.08;;;;;;;28.73;38.15;100637.72;10183607;29;20071;-78
2023/08/11 16:51:15;;;;;;;1.95;1.85;;;;;;;28.73;38.56;100629.41;10183359;29;20047;-78
2023/08/11 16:56:19;;;;;;;3.35;2.33;;;;;;;28.55;39.10;100627.59;10173467;29;20063;-78
2023/08/11 17:01:22;;;;;;;2.53;2.28;;;;;;;28.32;39.00;100628.34;10171249;29;20048;-78
2023/08/11 17:06:26;;;;;;;3.92;2.03;;;;;;;28.42;38.87;100623.94;10181703;29;20044;-78
2023/08/11 17:11:29;;;;;;;3.42;2.03;;;;;;;28.91;38.55;100621.03;10174654;29;20488;-78
2023/08/11 17:16:32;;;;;;;5.15;2.30;;;;;;;28.65;38.64;100608.50;10173120;29;20055;-78
2023/08/11 17:21:37;;;;;;;2.17;1.90;;;;;;;28.86;38.50;100609.84;10182993;29;20532;-78
2023/08/11 17:26:40;;;;;;;3.92;2.30;;;;;;;30.94;36.25;100605.03;10178644;29;20070;-78
2023/08/11 17:31:43;;;;;;;5.35;2.10;;;;;;;32.70;33.88;100602.09;10175884;29;20060;-78
2023/08/11 17:36:48;;;;;;;6.90;2.33;;;;;;;34.61;32.67;100595.00;10184200;29;20051;-78
2023/08/11 17:42:01;;;;;;;4.07;2.40;;;;;;;35.72;30.55;100597.78;10196428;29;20044;-78
2023/08/11 17:47:04;;;;;;;2.83;2.20;;;;;;;34.64;31.84;100602.78;10185456;29;21315;-79
2023/08/11 17:52:11;;;;;;;3.22;2.50;;;;;;;31.84;35.77;100609.31;10178894;29;20143;-78
2023/08/11 17:57:15;;;;;;;3.55;2.60;;;;;;;29.76;39.18;100608.53;10181485;29;20041;-78
2023/08/11 18:02:18;;;;;;;3.95;3.10;;;;;;;28.39;41.60;100613.38;10179420;29;20062;-78
2023/08/11 18:07:22;;;;;;;3.38;2.72;;;;;;;27.53;43.44;100618.16;10167990;29;20127;-78
2023/08/11 18:12:26;;;;;;;3.60;2.50;;;;;;;27.10;45.07;100615.47;10168072;29;20046;-77
2023/08/11 18:17:29;;;;;;;8.52;3.47;;;;;;;26.85;45.79;100610.84;10165970;29;20052;-77
2023/08/11 18:22:33;;;;;;;2.83;2.42;;;;;;;26.62;46.86;100611.44;10168963;29;20055;-79
2023/08/11 18:27:37;;;;;;;3.35;2.35;;;;;;;26.35;46.63;100615.47;10164221;29;20540;-80
2023/08/11 18:32:39;;;;;;;4.10;3.03;;;;;;;26.21;46.62;100600.91;10176354;29;20424;-79
2023/08/11 18:37:47;;;;;;;6.03;2.97;;;;;;;26.05;45.71;100605.91;10178275;29;20544;-79
2023/08/11 18:42:50;;;;;;;4.30;2.95;;;;;;;25.89;46.22;100611.94;10171718;29;20048;-79
2023/08/11 18:47:54;;;;;;;19.63;3.28;;;;;;;25.76;46.67;100604.59;10177829;29;20091;-79
2023/08/11 18:52:59;;;;;;;10.00;3.00;;;;;;;25.58;46.91;100610.75;10173456;29;20056;-78
2023/08/11 18:58:03;;;;;;;4.43;2.65;;;;;;;25.28;46.04;100610.44;10172601;29;20087;-79
2023/08/11 19:03:06;;;;;;;5.57;3.00;;;;;;;25.13;46.38;100623.63;10170666;29;20044;-79
2023/08/11 19:08:11;;;;;;;6.70;3.25;;;;;;;25.10;46.72;100624.06;10172669;29;20079;-79
2023/08/11 19:13:14;;;;;;;6.55;2.90;;;;;;;24.92;46.89;100628.25;10172851;29;20128;-79
2023/08/11 19:18:17;;;;;;;2.95;2.63;;;;;;;24.70;47.44;100622.16;10168642;29;20055;-79
2023/08/11 19:23:22;;;;;;;10.52;2.97;;;;;;;24.59;48.34;100617.28;10170325;29;20484;-79
2023/08/11 19:28:25;;;;;;;4.55;3.20;;;;;;;24.43;47.59;100624.03;10158711;29;20042;-78
2023/08/11 19:33:28;;;;;;;5.55;3.17;;;;;;;24.26;48.12;100623.56;10155025;29;20154;-79
2023/08/11 19:38:32;;;;;;;9.38;3.92;;;;;;;24.26;48.70;100614.50;10163608;29;20052;-77
2023/08/11 19:43:35;;;;;;;7.75;4.55;;;;;;;24.30;49.11;100618.53;10165403;29;20075;-79
2023/08/11 19:48:38;;;;;;;6.18;4.95;;;;;;;24.30;49.87;100613.03;10174462;29;20044;-78
2023/08/11 19:53:42;;;;;;;9.07;5.00;;;;;;;24.27;50.76;100613.44;10172207;29;20048;-78
2023/08/11 19:58:45;;;;;;;7.47;5.10;;;;;;;24.12;51.32;100608.16;10171221;29;20079;-78
2023/08/11 20:03:48;;;;;;;4.95;4.40;;;;;;;24.01;51.72;100611.50;10169339;29;20473;-78
2023/08/11 20:08:52;;;;;;;8.18;4.70;;;;;;;24.03;52.00;100609.41;10169314;29;20382;-77
2023/08/11 20:13:55;;;;;;;5.60;4.40;;;;;;;24.02;51.65;100618.69;10166166;29;20059;-78
2023/08/11 20:18:58;;;;;;;4.93;4.38;;;;;;;23.99;51.05;100608.97;10166453;29;20045;-78
2023/08/11 20:24:02;;;;;;;7.40;5.78;;;;;;;23.86;50.89;100609.78;10167499;29;20044;-78
2023/08/11 20:29:06;;;;;;;15.30;5.63;;;;;;;23.79;51.91;100605.34;10164228;29;20072;-78
2023/08/11 20:34:09;;;;;;;10.23;6.18;;;;;;;23.74;52.35;100603.16;10168294;29;20079;-78
2023/08/11 20:39:13;;;;;;;9.43;6.13;;;;;;;23.65;52.99;100594.28;10157753;29;20048;-78
2023/08/11 20:44:16;;;;;;;10.23;6.32;;;;;;;23.65;53.52;100594.28;10152792;29;20040;-78
2023/08/11 20:49:19;;;;;;;11.20;7.35;;;;;;;23.59;53.36;100584.16;10150346;29;20054;-78
2023/08/11 20:54:23;;;;;;;14.82;6.65;;;;;;;23.51;54.25;100578.84;10158937;29;20045;-78
2023/08/11 20:59:26;;;;;;;18.25;6.88;;;;;;;23.41;55.08;100581.09;10177324;29;20063;-78
2023/08/11 21:04:29;;;;;;;14.57;6.78;;;;;;;23.28;55.98;100572.81;10152798;29;20094;-78
2023/08/11 21:09:34;;;;;;;15.68;5.78;;;;;;;23.25;56.46;100574.06;10158158;29;20059;-78
2023/08/11 21:14:37;;;;;;;11.02;5.60;;;;;;;23.25;57.46;100570.50;10166046;29;20339;-77
2023/08/11 21:19:39;;;;;;;12.32;5.57;;;;;;;23.28;57.43;100570.09;10171050;29;20044;-78
2023/08/11 21:24:44;;;;;;;9.13;5.65;;;;;;;23.24;57.78;100569.66;10166507;29;20051;-79
2023/08/11 21:29:46;;;;;;;12.85;5.53;;;;;;;22.94;59.07;100564.41;10165909;29;20067;-79
2023/08/11 21:34:50;;;;;;;19.15;4.78;;;;;;;22.77;60.19;100561.13;10168153;29;20044;-79
2023/08/11 21:39:54;;;;;;;16.95;5.53;;;;;;;22.59;61.29;100558.06;10169473;29;20127;-78
2023/08/11 21:44:57;;;;;;;9.52;5.03;;;;;;;22.49;61.42;100558.41;10164808;29;20412;-77
2023/08/11 21:50:00;;;;;;;9.90;5.70;;;;;;;22.44;61.49;100563.63;10161835;29;20036;-77
2023/08/11 21:55:05;;;;;;;8.60;5.10;;;;;;;22.28;62.28;100561.16;10160817;29;20052;-77
2023/08/11 22:00:09;;;;;;;8.18;4.97;;;;;;;22.26;62.16;100566.81;10162046;29;20493;-78
2023/08/11 22:05:26;;;;;;;12.25;5.00;;;;;;;22.25;62.32;100548.72;10159954;29;20075;-78
2023/08/11 22:10:30;;;;;;;10.75;5.53;;;;;;;22.28;62.90;100550.19;10153102;29;20119;-77
2023/08/11 22:15:33;;;;;;;9.80;5.97;;;;;;;22.17;62.54;100537.06;10162146;29;20056;-78
2023/08/11 22:20:36;;;;;;;14.93;6.03;;;;;;;22.15;62.92;100536.41;10162533;29;20048;-77
2023/08/11 22:25:41;;;;;;;18.13;6.47;;;;;;;22.04;62.75;100530.41;10161272;29;20044;-77
2023/08/11 22:30:43;;;;;;;16.75;5.65;;;;;;;22.07;62.96;100535.47;10168029;29;20067;-77
2023/08/11 22:35:47;;;;;;;16.98;5.50;;;;;;;21.93;62.75;100538.31;10170060;29;20387;-77
2023/08/11 22:40:51;;;;;;;15.63;5.45;;;;;;;21.96;62.32;100525.06;10163036;29;20040;-78
2023/08/11 22:45:54;;;;;;;8.48;5.05;;;;;;;22.03;62.10;100526.00;10163713;29;20127;-77
2023/08/11 22:50:57;;;;;;;11.57;5.15;;;;;;;22.00;61.93;100525.56;10162597;29;20063;-77
2023/08/11 22:56:01;;;;;;;10.57;4.85;;;;;;;21.97;62.29;100524.06;10161669;29;20044;-80
2023/08/11 23:01:04;;;;;;;11.32;5.32;;;;;;;21.93;62.09;100527.38;10166777;29;20120;-77
2023/08/11 23:06:07;;;;;;;8.82;4.68;;;;;;;21.87;62.73;100523.53;10170582;29;20083;-77
2023/08/11 23:11:11;;;;;;;15.15;6.13;;;;;;;21.91;62.74;100527.53;10172115;29;20447;-78